Time;durP1;ratioP1;P1;durP2;ratioP2;P2;SDS_P1;SDS_P2;PMS_P1;PMS_P2;Temp;Humidity;BMP_temperature;BMP_pressure;BME280_temperature;BME280_humidity;BME280_pressure;Samples;Min_cycle;Max_cycle;Signal;HPM_P1;HPM_P2
2022/10/06 00:02:17;;;;;;;;;;;14.20;99.90;;;;;;5109422;27;36134;-59
2022/10/06 00:04:45;;;;;;;;;;;14.10;99.90;;;;;;5108568;27;36472;-59
2022/10/06 00:07:12;;;;;;;;;;;14.10;99.90;;;;;;5110759;27;36890;-60
2022/10/06 00:09:39;;;;;;;;;;;14.10;99.90;;;;;;5109869;27;37367;-59
2022/10/06 00:12:06;;;;;;;;;;;14.10;99.90;;;;;;5110111;27;36968;-61
2022/10/06 00:14:33;;;;;;;;;;;14.10;99.90;;;;;;5109553;27;37947;-61
2022/10/06 00:17:00;;;;;;;;;;;14.10;99.90;;;;;;5108848;27;37691;-61
2022/10/06 00:19:27;;;;;;;;;;;14.10;99.90;;;;;;5109994;27;37457;-61
2022/10/06 00:21:56;;;;;;;;;;;14.10;99.90;;;;;;5109027;27;36157;-61
2022/10/06 00:24:23;;;;;;;;;;;14.00;99.90;;;;;;5110035;27;37673;-60
2022/10/06 00:26:50;;;;;;;;;;;14.00;99.90;;;;;;5108883;27;37942;-59
2022/10/06 00:29:17;;;;;;;;;;;14.00;99.90;;;;;;5108172;27;37106;-61
2022/10/06 00:31:44;;;;;;;;;;;14.00;99.90;;;;;;5109690;27;38715;-61
2022/10/06 00:34:11;;;;;;;;;;;14.00;99.90;;;;;;5109707;27;37342;-60
2022/10/06 00:36:39;;;;;;;;;;;14.00;99.90;;;;;;5108531;27;36688;-60
2022/10/06 00:39:07;;;;;;;;;;;14.00;99.90;;;;;;5109879;27;37882;-59
2022/10/06 00:41:34;;;;;;;;;;;14.00;99.90;;;;;;5110166;27;36380;-60
2022/10/06 00:44:01;;;;;;;;;;;14.00;99.90;;;;;;5109121;27;36514;-60
2022/10/06 00:46:32;;;;;;;;;;;14.00;99.90;;;;;;5106304;27;37996;-61
2022/10/06 00:49:03;;;;;;;;;;;14.00;99.90;;;;;;5109103;27;37082;-61
2022/10/06 00:51:30;;;;;;;;;;;14.00;99.90;;;;;;5108735;27;37728;-59
2022/10/06 00:53:57;;;;;;;;;;;13.90;99.90;;;;;;5108144;27;38029;-59
2022/10/06 00:56:26;;;;;;;;;;;13.90;99.90;;;;;;5109527;27;37968;-59
2022/10/06 00:58:53;;;;;;;;;;;13.90;99.90;;;;;;5107724;27;37020;-59
2022/10/06 01:01:20;;;;;;;;;;;13.90;99.90;;;;;;5108554;27;36533;-59
2022/10/06 01:03:50;;;;;;;;;;;13.80;99.90;;;;;;5108728;27;37863;-61
2022/10/06 01:06:17;;;;;;;;;;;13.80;99.90;;;;;;5108267;27;37365;-60
2022/10/06 01:08:45;;;;;;;;;;;13.80;99.90;;;;;;5109180;27;38095;-60
2022/10/06 01:11:13;;;;;;;;;;;13.80;99.90;;;;;;5108775;27;37355;-61
2022/10/06 01:13:43;;;;;;;;;;;13.80;99.90;;;;;;5110140;27;36378;-59
2022/10/06 01:16:13;;;;;;;;;;;13.80;99.90;;;;;;5108097;27;38647;-60
2022/10/06 01:18:41;;;;;;;;;;;13.80;99.90;;;;;;5108582;27;37077;-59
2022/10/06 01:21:11;;;;;;;;;;;13.80;99.90;;;;;;5109331;27;38086;-60
2022/10/06 01:23:40;;;;;;;;;;;13.80;99.90;;;;;;5109181;27;39820;-60
2022/10/06 01:26:09;;;;;;;;;;;13.80;99.90;;;;;;5108850;27;40106;-59
2022/10/06 01:28:37;;;;;;;;;;;13.80;99.90;;;;;;5107030;27;37033;-59
2022/10/06 01:31:04;;;;;;;;;;;13.80;99.90;;;;;;5108443;27;37752;-60
2022/10/06 01:33:31;;;;;;;;;;;13.80;99.90;;;;;;5108718;27;36439;-59
2022/10/06 01:35:58;;;;;;;;;;;13.80;99.90;;;;;;5109427;27;38578;-60
2022/10/06 01:38:25;;;;;;;;;;;13.80;99.90;;;;;;5107896;27;37357;-60
2022/10/06 01:40:53;;;;;;;;;;;13.80;99.90;;;;;;5109603;27;37131;-60
2022/10/06 01:43:20;;;;;;;;;;;13.80;99.90;;;;;;5107799;27;37484;-61
2022/10/06 01:45:52;;;;;;;;;;;13.80;99.90;;;;;;5108209;27;36710;-59
2022/10/06 01:48:19;;;;;;;;;;;13.80;99.90;;;;;;5108452;27;36100;-59
2022/10/06 01:50:46;;;;;;;;;;;13.80;99.90;;;;;;5107447;27;37110;-61
2022/10/06 01:53:13;;;;;;;;;;;13.80;99.90;;;;;;5108496;27;36498;-61
2022/10/06 01:55:40;;;;;;;;;;;13.80;99.90;;;;;;5108942;27;37799;-60
2022/10/06 01:58:09;;;;;;;;;;;13.70;99.90;;;;;;5107182;27;37169;-61
2022/10/06 02:00:36;;;;;;;;;;;13.70;99.90;;;;;;5106482;27;36216;-59
2022/10/06 02:03:03;;;;;;;;;;;13.70;99.90;;;;;;5107849;27;37962;-60
2022/10/06 02:05:31;;;;;;;;;;;13.70;99.90;;;;;;5108249;27;38478;-59
2022/10/06 02:07:58;;;;;;;;;;;13.70;99.90;;;;;;5107845;27;37665;-59
2022/10/06 02:10:25;;;;;;;;;;;13.80;99.90;;;;;;5108694;27;36207;-59
2022/10/06 02:12:52;;;;;;;;;;;13.70;99.90;;;;;;5107636;27;36628;-59
2022/10/06 02:15:21;;;;;;;;;;;13.60;99.90;;;;;;5107741;27;38074;-59
2022/10/06 02:17:48;;;;;;;;;;;13.60;99.90;;;;;;5108315;27;37552;-60
2022/10/06 02:20:15;;;;;;;;;;;13.60;99.90;;;;;;5108560;27;36531;-60
2022/10/06 02:22:43;;;;;;;;;;;13.60;99.90;;;;;;5109361;27;39923;-60
2022/10/06 02:25:11;;;;;;;;;;;13.60;99.90;;;;;;5107747;27;38068;-60
2022/10/06 02:27:38;;;;;;;;;;;13.60;99.90;;;;;;5107091;27;37294;-60
2022/10/06 02:30:06;;;;;;;;;;;13.60;99.90;;;;;;5106843;27;37668;-59
2022/10/06 02:32:35;;;;;;;;;;;13.60;99.90;;;;;;5107033;27;39603;-59
2022/10/06 02:35:03;;;;;;;;;;;13.60;99.90;;;;;;5107900;27;36609;-60
2022/10/06 02:37:30;;;;;;;;;;;13.50;99.90;;;;;;5107204;27;37101;-60
2022/10/06 02:39:57;;;;;;;;;;;13.50;99.90;;;;;;5107350;27;36434;-59
2022/10/06 02:42:24;;;;;;;;;;;13.60;99.90;;;;;;5105441;27;37819;-60
2022/10/06 02:44:52;;;;;;;;;;;13.60;99.90;;;;;;5107114;27;38094;-60
2022/10/06 02:47:21;;;;;;;;;;;13.50;99.90;;;;;;5106436;27;36913;-59
2022/10/06 02:49:49;;;;;;;;;;;13.60;99.90;;;;;;5107235;27;36216;-59
2022/10/06 02:52:16;;;;;;;;;;;13.60;99.90;;;;;;5106248;27;37569;-60
2022/10/06 02:54:45;;;;;;;;;;;13.60;99.90;;;;;;5107062;27;39985;-59
2022/10/06 02:57:14;;;;;;;;;;;13.60;99.90;;;;;;5106629;27;35965;-59
2022/10/06 02:59:41;;;;;;;;;;;13.60;99.90;;;;;;5106804;27;36067;-59
2022/10/06 03:02:08;;;;;;;;;;;13.60;99.90;;;;;;5108080;27;36711;-61
2022/10/06 03:04:35;;;;;;;;;;;13.60;99.90;;;;;;5107330;27;38967;-60
2022/10/06 03:07:04;;;;;;;;;;;13.60;99.90;;;;;;5107006;27;36479;-59
2022/10/06 03:09:31;;;;;;;;;;;13.60;99.90;;;;;;5107489;27;38381;-59
2022/10/06 03:11:58;;;;;;;;;;;13.60;99.90;;;;;;5107962;27;37644;-59
2022/10/06 03:14:25;;;;;;;;;;;13.60;99.90;;;;;;5107611;27;40151;-59
2022/10/06 03:16:53;;;;;;;;;;;13.50;99.90;;;;;;5105588;27;37115;-59
2022/10/06 03:19:20;;;;;;;;;;;13.50;99.90;;;;;;5107613;27;35167;-59
2022/10/06 03:21:48;;;;;;;;;;;13.50;99.90;;;;;;5107272;27;37806;-59
2022/10/06 03:24:16;;;;;;;;;;;13.50;99.90;;;;;;5106693;27;37777;-59
2022/10/06 03:26:44;;;;;;;;;;;13.50;99.90;;;;;;5106556;27;37059;-59
2022/10/06 03:29:11;;;;;;;;;;;13.40;99.90;;;;;;5103967;27;35101;-60
2022/10/06 03:31:38;;;;;;;;;;;13.40;99.90;;;;;;5105426;27;38235;-60
2022/10/06 03:34:05;;;;;;;;;;;13.40;99.90;;;;;;5106858;27;38526;-59
2022/10/06 03:36:33;;;;;;;;;;;13.40;99.90;;;;;;5106881;27;37517;-61
2022/10/06 03:39:01;;;;;;;;;;;13.40;99.90;;;;;;5107659;27;36096;-60
2022/10/06 03:41:30;;;;;;;;;;;13.40;99.90;;;;;;5107525;27;37491;-61
2022/10/06 03:43:58;;;;;;;;;;;13.40;99.90;;;;;;5106216;27;38220;-61
2022/10/06 03:46:26;;;;;;;;;;;13.30;99.90;;;;;;5106588;27;37031;-60
2022/10/06 03:48:53;;;;;;;;;;;13.30;99.90;;;;;;5107506;27;35188;-60
2022/10/06 03:51:21;;;;;;;;;;;13.30;99.90;;;;;;5106837;27;39236;-60
2022/10/06 03:53:49;;;;;;;;;;;13.30;99.90;;;;;;5105434;27;40230;-60
2022/10/06 03:56:17;;;;;;;;;;;13.20;99.90;;;;;;5106050;27;37105;-60
2022/10/06 03:58:46;;;;;;;;;;;13.30;99.90;;;;;;5106517;27;35376;-60
2022/10/06 04:01:14;;;;;;;;;;;13.30;99.90;;;;;;5107000;27;37116;-59
2022/10/06 04:03:41;;;;;;;;;;;13.30;99.90;;;;;;5105924;27;38676;-60
2022/10/06 04:06:12;;;;;;;;;;;13.20;99.90;;;;;;5107230;27;36590;-61
2022/10/06 04:08:40;;;;;;;;;;;13.30;99.90;;;;;;5106681;27;38567;-59
2022/10/06 04:11:08;;;;;;;;;;;13.30;99.90;;;;;;5106342;27;38844;-59
2022/10/06 04:13:35;;;;;;;;;;;13.20;99.90;;;;;;5105398;27;36577;-60
2022/10/06 04:16:14;;;;;;;;;;;13.20;99.90;;;;;;5105516;27;37387;-59
2022/10/06 04:18:41;;;;;;;;;;;13.20;99.90;;;;;;5105851;27;36262;-59
2022/10/06 04:21:09;;;;;;;;;;;13.10;99.90;;;;;;5106475;27;37665;-60
2022/10/06 04:23:36;;;;;;;;;;;13.10;99.90;;;;;;5105539;27;38580;-59
2022/10/06 04:26:05;;;;;;;;;;;13.10;99.90;;;;;;5106582;27;35912;-59
2022/10/06 04:28:32;;;;;;;;;;;13.10;99.90;;;;;;5104356;27;35185;-59
2022/10/06 04:31:00;;;;;;;;;;;13.00;99.90;;;;;;5104639;27;37187;-61
2022/10/06 04:33:29;;;;;;;;;;;13.00;99.90;;;;;;5103553;27;38653;-60
2022/10/06 04:35:57;;;;;;;;;;;13.00;99.90;;;;;;5105238;27;37899;-60
2022/10/06 04:38:24;;;;;;;;;;;13.00;99.90;;;;;;5105683;27;36371;-61
2022/10/06 04:40:51;;;;;;;;;;;13.00;99.90;;;;;;5108476;27;36456;-60
2022/10/06 04:43:18;;;;;;;;;;;13.00;99.90;;;;;;5110991;27;39510;-60
2022/10/06 04:45:45;;;;;;;;;;;12.90;99.90;;;;;;5110514;27;39814;-59
2022/10/06 04:48:12;;;;;;;;;;;12.90;99.90;;;;;;5109971;27;36323;-59
2022/10/06 04:50:40;;;;;;;;;;;12.90;99.90;;;;;;5107861;27;39171;-59
2022/10/06 04:53:07;;;;;;;;;;;12.90;99.90;;;;;;5107967;27;36648;-59
2022/10/06 04:55:34;;;;;;;;;;;12.90;99.90;;;;;;5107390;27;38605;-59
2022/10/06 04:58:01;;;;;;;;;;;12.90;99.90;;;;;;5108038;27;35035;-59
2022/10/06 05:00:28;;;;;;;;;;;12.90;99.90;;;;;;5106886;27;38807;-59
2022/10/06 05:02:55;;;;;;;;;;;12.80;99.90;;;;;;5109065;27;36835;-60
2022/10/06 05:05:22;;;;;;;;;;;12.80;99.90;;;;;;5103012;27;37065;-61
2022/10/06 05:07:51;;;;;;;;;;;12.80;99.90;;;;;;5104965;27;36457;-60
2022/10/06 05:10:18;;;;;;;;;;;12.80;99.90;;;;;;5106758;27;39233;-60
2022/10/06 05:12:45;;;;;;;;;;;12.80;99.90;;;;;;5107376;27;37858;-60
2022/10/06 05:15:12;;;;;;;;;;;12.80;99.90;;;;;;5105826;27;37910;-60
2022/10/06 05:17:39;;;;;;;;;;;12.80;99.90;;;;;;5107667;27;36909;-60
2022/10/06 05:20:06;;;;;;;;;;;12.80;99.90;;;;;;5105469;27;36620;-61
2022/10/06 05:22:33;;;;;;;;;;;12.80;99.90;;;;;;5106308;27;38190;-60
2022/10/06 05:25:02;;;;;;;;;;;12.80;99.90;;;;;;5107782;27;38989;-60
2022/10/06 05:27:29;;;;;;;;;;;12.80;99.90;;;;;;5106876;27;37458;-60
2022/10/06 05:29:56;;;;;;;;;;;12.80;99.90;;;;;;5105574;27;37982;-60
2022/10/06 05:32:23;;;;;;;;;;;12.80;99.90;;;;;;5106245;27;38611;-60
2022/10/06 05:34:50;;;;;;;;;;;12.80;99.90;;;;;;5108705;27;37269;-60
2022/10/06 05:37:17;;;;;;;;;;;12.80;99.90;;;;;;5109745;27;36131;-60
2022/10/06 05:39:45;;;;;;;;;;;12.80;99.90;;;;;;5108423;27;38642;-61
2022/10/06 05:42:13;;;;;;;;;;;12.80;99.90;;;;;;5108784;27;38117;-60
2022/10/06 05:44:40;;;;;;;;;;;12.80;99.90;;;;;;5110329;27;37413;-60
2022/10/06 05:47:07;;;;;;;;;;;12.80;99.90;;;;;;5108616;27;37157;-61
2022/10/06 05:49:34;;;;;;;;;;;12.80;99.90;;;;;;5107388;27;39753;-60
2022/10/06 05:52:01;;;;;;;;;;;12.80;99.90;;;;;;5106541;27;37928;-60
2022/10/06 05:54:28;;;;;;;;;;;12.80;99.90;;;;;;5103533;27;37525;-60
2022/10/06 05:56:55;;;;;;;;;;;12.80;99.90;;;;;;5107278;27;37494;-60
2022/10/06 05:59:24;;;;;;;;;;;12.80;99.90;;;;;;5106465;27;37286;-60
2022/10/06 06:01:51;;;;;;;;;;;12.80;99.90;;;;;;5107400;27;37194;-60
2022/10/06 06:04:19;;;;;;;;;;;12.80;99.90;;;;;;5107470;27;37966;-60
2022/10/06 06:06:47;;;;;;;;;;;12.80;99.90;;;;;;5106137;27;35022;-59
2022/10/06 06:09:15;;;;;;;;;;;12.80;99.90;;;;;;5107164;27;36499;-59
2022/10/06 06:11:43;;;;;;;;;;;12.70;99.90;;;;;;5107218;27;38345;-58
2022/10/06 06:14:10;;;;;;;;;;;12.80;99.90;;;;;;5105996;27;38002;-60
2022/10/06 06:16:38;;;;;;;;;;;12.80;99.90;;;;;;5104236;27;37515;-59
2022/10/06 06:19:06;;;;;;;;;;;12.80;99.90;;;;;;5107979;27;37729;-59
2022/10/06 06:21:33;;;;;;;;;;;12.70;99.90;;;;;;5107452;27;38685;-59
2022/10/06 06:24:00;;;;;;;;;;;12.80;99.90;;;;;;5107074;27;39271;-59
2022/10/06 06:26:28;;;;;;;;;;;12.80;99.90;;;;;;5108708;27;36517;-59
2022/10/06 06:29:01;;;;;;;;;;;12.80;99.90;;;;;;5104921;27;37866;-59
2022/10/06 06:31:30;;;;;;;;;;;12.90;99.90;;;;;;5106457;27;37953;-58
2022/10/06 06:33:59;;;;;;;;;;;12.90;99.90;;;;;;5106830;27;37286;-58
2022/10/06 06:36:26;;;;;;;;;;;13.00;99.90;;;;;;5107744;27;37128;-58
2022/10/06 06:38:54;;;;;;;;;;;12.90;99.90;;;;;;5106180;27;37594;-58
2022/10/06 06:41:23;;;;;;;;;;;13.00;99.90;;;;;;5107496;27;39567;-59
2022/10/06 06:43:51;;;;;;;;;;;13.00;99.90;;;;;;5107217;27;38472;-59
2022/10/06 06:46:19;;;;;;;;;;;13.10;99.90;;;;;;5105296;27;38022;-59
2022/10/06 06:48:46;;;;;;;;;;;13.10;99.90;;;;;;5105349;27;36592;-59
2022/10/06 06:51:14;;;;;;;;;;;13.10;99.90;;;;;;5107421;27;38055;-59
2022/10/06 06:53:41;;;;;;;;;;;13.20;99.90;;;;;;5105037;27;37910;-59
2022/10/06 06:56:09;;;;;;;;;;;13.30;99.90;;;;;;5108592;27;36879;-59
2022/10/06 06:58:36;;;;;;;;;;;13.30;99.90;;;;;;5107459;27;38008;-60
2022/10/06 07:01:07;;;;;;;;;;;13.30;99.90;;;;;;5107638;27;36462;-59
2022/10/06 07:03:34;;;;;;;;;;;13.40;99.90;;;;;;5109467;27;38191;-59
2022/10/06 07:06:07;;;;;;;;;;;13.40;99.90;;;;;;5108009;27;36065;-59
2022/10/06 07:08:36;;;;;;;;;;;13.40;99.90;;;;;;5109069;27;37801;-59
2022/10/06 07:11:10;;;;;;;;;;;13.50;99.90;;;;;;5108453;27;38742;-59
2022/10/06 07:13:37;;;;;;;;;;;13.60;99.90;;;;;;5109154;27;36883;-59
2022/10/06 07:27:05;;;;;;;;;;;13.70;99.90;;;;;;5108682;27;37153;-59
2022/10/06 07:29:32;;;;;;;;;;;13.80;99.90;;;;;;5107777;27;37832;-60
2022/10/06 07:31:59;;;;;;;;;;;13.80;99.90;;;;;;5108870;27;37801;-59
2022/10/06 07:34:27;;;;;;;;;;;13.80;99.90;;;;;;5109104;27;35399;-60
2022/10/06 07:36:54;;;;;;;;;;;13.80;99.90;;;;;;5109346;27;35123;-59
2022/10/06 07:39:23;;;;;;;;;;;13.80;99.90;;;;;;5108763;27;38011;-59
2022/10/06 07:41:51;;;;;;;;;;;13.90;99.90;;;;;;5108151;27;37776;-59
2022/10/06 07:44:18;;;;;;;;;;;13.90;99.90;;;;;;5108112;27;38183;-59
2022/10/06 07:46:45;;;;;;;;;;;13.90;99.90;;;;;;5107999;27;36417;-57
2022/10/06 07:49:13;;;;;;;;;;;14.00;99.90;;;;;;5108832;27;38602;-58
2022/10/06 07:51:41;;;;;;;;;;;14.00;99.90;;;;;;5108616;27;38620;-57
2022/10/06 07:54:08;;;;;;;;;;;14.00;99.90;;;;;;5107739;27;37750;-58
2022/10/06 07:56:37;;;;;;;;;;;14.10;99.90;;;;;;5107664;27;36567;-58
2022/10/06 07:59:04;;;;;;;;;;;14.10;99.90;;;;;;5105118;27;39226;-59
2022/10/06 08:01:31;;;;;;;;;;;14.10;99.90;;;;;;5108488;27;37719;-59
2022/10/06 08:03:58;;;;;;;;;;;14.10;99.90;;;;;;5109173;27;37850;-59
2022/10/06 08:06:25;;;;;;;;;;;14.10;99.90;;;;;;5108124;27;36106;-60
2022/10/06 08:08:52;;;;;;;;;;;14.20;99.90;;;;;;5106593;27;37984;-59
2022/10/06 08:11:19;;;;;;;;;;;14.20;99.90;;;;;;5106882;27;37741;-59
2022/10/06 08:13:48;;;;;;;;;;;14.30;99.90;;;;;;5108760;27;36715;-59
2022/10/06 08:16:16;;;;;;;;;;;14.30;99.90;;;;;;5107944;27;35909;-59
2022/10/06 08:18:44;;;;;;;;;;;14.30;99.90;;;;;;5111209;27;37201;-59
2022/10/06 08:21:12;;;;;;;;;;;14.40;99.90;;;;;;5110005;27;38615;-60
2022/10/06 08:23:41;;;;;;;;;;;14.40;99.90;;;;;;5110444;27;38369;-59
2022/10/06 08:26:08;;;;;;;;;;;14.50;99.90;;;;;;5110462;27;36149;-59
2022/10/06 08:28:36;;;;;;;;;;;14.50;99.90;;;;;;5107161;27;37877;-58
2022/10/06 08:31:05;;;;;;;;;;;14.50;99.90;;;;;;5108226;27;37920;-57
2022/10/06 08:33:33;;;;;;;;;;;14.60;99.90;;;;;;5109726;27;36943;-58
2022/10/06 08:36:02;;;;;;;;;;;14.60;99.90;;;;;;5111404;27;35112;-59
2022/10/06 08:38:30;;;;;;;;;;;14.60;99.90;;;;;;5110367;27;37583;-59
2022/10/06 08:40:57;;;;;;;;;;;14.70;99.90;;;;;;5112084;27;38814;-59
2022/10/06 08:43:25;;;;;;;;;;;14.70;99.90;;;;;;5112084;27;38316;-60
2022/10/06 08:45:58;;;;;;;;;;;14.80;99.90;;;;;;5109997;27;36563;-58
2022/10/06 08:48:28;;;;;;;;;;;14.80;99.90;;;;;;5111966;27;40053;-58
2022/10/06 08:51:00;;;;;;;;;;;14.90;99.90;;;;;;5111361;27;38085;-59
2022/10/06 08:53:31;;;;;;;;;;;14.90;99.90;;;;;;5112151;27;37464;-58
2022/10/06 08:56:01;;;;;;;;;;;15.00;99.90;;;;;;5111125;27;36296;-58
2022/10/06 08:58:34;;;;;;;;;;;15.00;99.90;;;;;;5111362;27;40720;-60
2022/10/06 09:01:09;;;;;;;;;;;15.10;99.90;;;;;;5111407;27;37792;-59
2022/10/06 09:03:37;;;;;;;;;;;15.10;99.90;;;;;;5112229;27;36817;-57
2022/10/06 09:06:08;;;;;;;;;;;15.10;99.90;;;;;;5110824;27;36185;-57
2022/10/06 09:08:40;;;;;;;;;;;15.20;99.90;;;;;;5110894;27;37528;-59
2022/10/06 09:11:20;;;;;;;;;;;15.20;99.90;;;;;;5111375;27;38451;-58
2022/10/06 09:13:52;;;;;;;;;;;15.30;99.90;;;;;;5109630;27;37729;-57
2022/10/06 09:16:26;;;;;;;;;;;15.40;99.90;;;;;;5110664;27;40584;-58
2022/10/06 09:18:58;;;;;;;;;;;15.40;99.90;;;;;;5111528;27;37915;-58
2022/10/06 09:21:29;;;;;;;;;;;15.40;99.90;;;;;;5111054;27;38039;-58
2022/10/06 09:24:01;;;;;;;;;;;15.50;99.90;;;;;;5111780;27;37652;-58
2022/10/06 09:26:32;;;;;;;;;;;15.50;99.90;;;;;;5109650;27;37844;-58
2022/10/06 09:28:59;;;;;;;;;;;15.50;99.90;;;;;;5109892;27;39289;-58
2022/10/06 09:31:27;;;;;;;;;;;15.50;99.90;;;;;;5110898;27;37641;-58
2022/10/06 09:34:00;;;;;;;;;;;15.50;99.90;;;;;;5111510;27;37548;-57
2022/10/06 09:36:27;;;;;;;;;;;15.50;99.90;;;;;;5109128;27;36780;-57
2022/10/06 09:38:55;;;;;;;;;;;15.60;99.90;;;;;;5110808;27;39618;-57
2022/10/06 09:41:24;;;;;;;;;;;15.60;99.90;;;;;;5109443;27;36812;-57
2022/10/06 09:43:53;;;;;;;;;;;15.70;99.90;;;;;;5106265;27;35985;-58
2022/10/06 09:46:21;;;;;;;;;;;15.70;99.90;;;;;;5109845;27;36012;-58
2022/10/06 09:48:48;;;;;;;;;;;15.70;99.90;;;;;;5110363;27;38220;-58
2022/10/06 09:51:17;;;;;;;;;;;15.70;99.90;;;;;;5110257;27;37715;-57
2022/10/06 09:53:44;;;;;;;;;;;15.60;99.90;;;;;;5110872;27;37620;-58
2022/10/06 09:56:14;;;;;;;;;;;15.60;99.90;;;;;;5107930;27;37398;-58
2022/10/06 09:58:53;;;;;;;;;;;15.60;99.90;;;;;;5108131;27;37798;-58
2022/10/06 10:01:22;;;;;;;;;;;15.60;99.90;;;;;;5108687;27;38871;-58
2022/10/06 10:03:51;;;;;;;;;;;15.70;99.90;;;;;;5110332;27;36726;-58
2022/10/06 10:06:23;;;;;;;;;;;15.90;99.90;;;;;;5111218;27;37793;-59
2022/10/06 10:08:50;;;;;;;;;;;16.10;99.70;;;;;;5107498;27;37696;-59
2022/10/06 10:14:14;;;;;;;;;;;16.30;99.70;;;;;;5110340;27;38888;-58
2022/10/06 10:16:41;;;;;;;;;;;16.40;99.70;;;;;;5109796;27;35045;-57
2022/10/06 10:19:20;;;;;;;;;;;16.50;99.90;;;;;;5110260;27;38294;-59
2022/10/06 10:21:48;;;;;;;;;;;16.60;99.10;;;;;;5109392;27;36644;-58
2022/10/06 10:24:19;;;;;;;;;;;16.70;99.20;;;;;;5109272;27;39797;-58
2022/10/06 10:26:50;;;;;;;;;;;16.80;98.20;;;;;;5108503;27;36978;-60
2022/10/06 10:29:34;;;;;;;;;;;16.90;98.40;;;;;;5108374;27;37483;-59
2022/10/06 10:32:08;;;;;;;;;;;17.10;97.70;;;;;;5107797;27;37895;-59
2022/10/06 10:34:44;;;;;;;;;;;17.20;96.70;;;;;;5108914;27;37379;-60
2022/10/06 10:37:15;;;;;;;;;;;17.30;96.60;;;;;;5107705;27;37477;-59
2022/10/06 10:39:47;;;;;;;;;;;17.50;98.00;;;;;;5110033;27;37978;-59
2022/10/06 10:42:18;;;;;;;;;;;17.60;97.00;;;;;;5105764;27;37427;-60
2022/10/06 10:44:50;;;;;;;;;;;17.70;97.20;;;;;;5099489;27;36673;-60
2022/10/06 10:47:21;;;;;;;;;;;17.70;96.90;;;;;;5104884;27;36123;-60
2022/10/06 10:49:50;;;;;;;;;;;17.70;97.50;;;;;;5105060;27;38730;-59
2022/10/06 10:52:20;;;;;;;;;;;17.80;95.80;;;;;;5104500;27;38877;-59
2022/10/06 10:54:52;;;;;;;;;;;17.80;97.30;;;;;;5103801;27;36886;-58
2022/10/06 10:57:21;;;;;;;;;;;17.90;94.70;;;;;;5104938;27;37172;-60
2022/10/06 10:59:56;;;;;;;;;;;17.90;95.70;;;;;;5102801;27;38002;-59
2022/10/06 11:02:23;;;;;;;;;;;17.90;95.10;;;;;;5102654;27;38114;-58
2022/10/06 11:04:51;;;;;;;;;;;18.00;94.70;;;;;;5106680;27;37568;-60
2022/10/06 11:07:23;;;;;;;;;;;18.00;93.30;;;;;;5108329;27;38223;-60
2022/10/06 11:09:54;;;;;;;;;;;18.10;92.30;;;;;;5106255;27;36537;-60
2022/10/06 11:12:27;;;;;;;;;;;18.10;93.60;;;;;;5108366;27;37914;-60
2022/10/06 11:14:56;;;;;;;;;;;18.10;92.70;;;;;;5106478;27;39312;-60
2022/10/06 11:17:32;;;;;;;;;;;18.00;92.30;;;;;;5106451;27;36764;-60
2022/10/06 11:20:04;;;;;;;;;;;17.90;91.80;;;;;;5106615;27;37503;-60
2022/10/06 11:22:36;;;;;;;;;;;18.00;92.60;;;;;;5097089;27;38743;-60
2022/10/06 11:25:12;;;;;;;;;;;18.00;92.10;;;;;;5102325;27;36080;-60
2022/10/06 11:27:43;;;;;;;;;;;18.00;91.50;;;;;;5103154;27;36269;-59
2022/10/06 11:30:13;;;;;;;;;;;18.10;91.00;;;;;;5101925;27;37439;-60
2022/10/06 11:32:47;;;;;;;;;;;18.00;91.20;;;;;;5102191;27;38020;-60
2022/10/06 11:35:16;;;;;;;;;;;18.10;92.30;;;;;;5101851;27;37275;-59
2022/10/06 11:37:47;;;;;;;;;;;18.20;91.60;;;;;;5102338;27;37062;-59
2022/10/06 11:40:24;;;;;;;;;;;18.20;91.30;;;;;;5101803;27;36419;-60
2022/10/06 11:42:54;;;;;;;;;;;18.20;91.50;;;;;;5101456;27;37718;-60
2022/10/06 11:45:23;;;;;;;;;;;18.20;90.90;;;;;;5102712;27;37916;-59
2022/10/06 11:47:59;;;;;;;;;;;18.10;91.60;;;;;;5102578;27;38645;-60
2022/10/06 11:50:33;;;;;;;;;;;18.10;90.50;;;;;;5106058;27;36610;-59
2022/10/06 11:53:01;;;;;;;;;;;18.10;90.70;;;;;;5105167;27;37719;-60
2022/10/06 11:55:29;;;;;;;;;;;18.20;90.80;;;;;;5107504;27;36846;-60
2022/10/06 11:58:06;;;;;;;;;;;18.20;90.50;;;;;;5105338;27;36497;-60
2022/10/06 12:00:43;;;;;;;;;;;18.20;91.50;;;;;;5105323;27;38505;-60
2022/10/06 12:03:33;;;;;;;;;;;18.20;91.70;;;;;;5105998;27;37737;-59
2022/10/06 12:06:01;;;;;;;;;;;18.30;91.00;;;;;;5105840;27;37018;-59
2022/10/06 12:08:36;;;;;;;;;;;18.30;91.20;;;;;;5105294;27;35209;-59
2022/10/06 12:11:04;;;;;;;;;;;18.20;90.30;;;;;;5106974;27;37960;-59
2022/10/06 12:13:37;;;;;;;;;;;18.20;89.70;;;;;;5106075;27;38102;-59
2022/10/06 12:16:17;;;;;;;;;;;18.10;88.80;;;;;;5105751;27;37096;-59
2022/10/06 12:18:46;;;;;;;;;;;18.00;86.50;;;;;;5106214;27;37258;-59
2022/10/06 12:21:30;;;;;;;;;;;17.90;90.50;;;;;;5105791;27;37739;-59
2022/10/06 12:24:03;;;;;;;;;;;17.80;91.40;;;;;;5105394;27;38097;-59
2022/10/06 12:26:37;;;;;;;;;;;17.80;93.00;;;;;;5106520;27;38043;-59
2022/10/06 12:29:18;;;;;;;;;;;17.90;94.00;;;;;;5105347;27;37800;-59
2022/10/06 12:31:51;;;;;;;;;;;17.90;92.90;;;;;;5106337;27;36605;-59
2022/10/06 12:34:37;;;;;;;;;;;17.90;92.50;;;;;;5104513;27;40145;-59
2022/10/06 12:37:19;;;;;;;;;;;17.90;91.70;;;;;;5105950;27;37033;-59
2022/10/06 12:39:48;;;;;;;;;;;17.80;92.40;;;;;;5105889;27;35799;-59
2022/10/06 12:42:18;;;;;;;;;;;17.80;91.90;;;;;;5104868;27;37629;-59
2022/10/06 12:44:48;;;;;;;;;;;17.80;91.40;;;;;;5102089;27;39521;-59
2022/10/06 12:47:17;;;;;;;;;;;17.70;92.60;;;;;;5107314;27;37243;-59
2022/10/06 12:49:46;;;;;;;;;;;17.70;92.30;;;;;;5106892;27;34999;-59
2022/10/06 12:52:30;;;;;;;;;;;17.70;92.10;;;;;;5107696;27;38875;-59
2022/10/06 12:55:05;;;;;;;;;;;17.60;91.50;;;;;;5107382;27;37897;-59
2022/10/06 12:57:44;;;;;;;;;;;17.50;90.60;;;;;;5107728;27;38632;-59
2022/10/06 13:00:21;;;;;;;;;;;17.40;91.30;;;;;;5106823;27;35159;-59
2022/10/06 13:02:48;;;;;;;;;;;17.30;92.00;;;;;;5108222;27;37187;-59
2022/10/06 13:05:15;;;;;;;;;;;17.30;92.60;;;;;;5107456;27;38182;-60
2022/10/06 13:07:55;;;;;;;;;;;17.30;92.20;;;;;;5108421;27;36171;-61
2022/10/06 13:10:23;;;;;;;;;;;17.30;91.00;;;;;;5107220;27;36105;-61
2022/10/06 13:12:51;;;;;;;;;;;17.20;91.90;;;;;;5107558;27;38876;-60
2022/10/06 13:15:20;;;;;;;;;;;17.20;91.70;;;;;;5106771;27;39715;-60
2022/10/06 13:17:49;;;;;;;;;;;17.10;91.80;;;;;;5107426;27;37229;-60
2022/10/06 13:20:25;;;;;;;;;;;17.10;91.80;;;;;;5105942;27;36138;-60
2022/10/06 13:22:56;;;;;;;;;;;17.10;92.20;;;;;;5106385;27;37290;-60
2022/10/06 13:25:33;;;;;;;;;;;17.00;92.00;;;;;;5106584;27;36755;-60
2022/10/06 13:28:01;;;;;;;;;;;16.90;91.80;;;;;;5105695;27;38155;-60
2022/10/06 13:30:28;;;;;;;;;;;16.90;92.10;;;;;;5106614;27;36949;-60
2022/10/06 13:32:56;;;;;;;;;;;16.90;91.80;;;;;;5106301;27;37589;-60
2022/10/06 13:35:25;;;;;;;;;;;16.80;92.20;;;;;;5106794;27;36762;-60
2022/10/06 13:37:53;;;;;;;;;;;16.80;92.00;;;;;;5106055;27;35860;-60
2022/10/06 13:40:30;;;;;;;;;;;16.80;92.20;;;;;;5105276;27;35939;-60
2022/10/06 13:42:58;;;;;;;;;;;16.80;92.30;;;;;;5108783;27;37287;-61
2022/10/06 13:45:25;;;;;;;;;;;16.70;92.60;;;;;;5108052;27;37969;-58
2022/10/06 13:48:02;;;;;;;;;;;16.70;92.90;;;;;;5108083;27;35962;-58
2022/10/06 13:50:29;;;;;;;;;;;16.70;92.80;;;;;;5107706;27;36223;-58
2022/10/06 13:52:56;;;;;;;;;;;16.70;91.60;;;;;;5107637;27;38354;-58
2022/10/06 13:55:24;;;;;;;;;;;16.60;91.60;;;;;;5107008;27;36874;-58
2022/10/06 13:58:06;;;;;;;;;;;16.60;91.90;;;;;;5107129;27;36711;-60
2022/10/06 14:00:33;;;;;;;;;;;16.50;91.70;;;;;;5105789;27;36454;-57
2022/10/06 14:03:08;;;;;;;;;;;16.50;90.90;;;;;;5105036;27;38716;-58
2022/10/06 14:05:37;;;;;;;;;;;16.50;91.80;;;;;;5104545;27;39595;-58
2022/10/06 14:08:14;;;;;;;;;;;16.50;92.40;;;;;;5106471;27;35956;-58
2022/10/06 14:10:45;;;;;;;;;;;16.40;92.70;;;;;;5106904;27;35182;-60
2022/10/06 14:13:16;;;;;;;;;;;16.40;92.80;;;;;;5106412;27;37207;-58
2022/10/06 14:15:46;;;;;;;;;;;16.40;92.70;;;;;;5108306;27;38660;-57
2022/10/06 14:18:19;;;;;;;;;;;16.40;92.50;;;;;;5105418;27;35989;-58
2022/10/06 14:20:47;;;;;;;;;;;16.40;93.10;;;;;;5107804;27;36941;-57
2022/10/06 14:23:33;;;;;;;;;;;16.30;93.00;;;;;;5108231;27;39176;-60
2022/10/06 14:26:00;;;;;;;;;;;16.30;93.30;;;;;;5106822;27;36771;-58
2022/10/06 14:28:29;;;;;;;;;;;16.30;93.80;;;;;;5107587;27;37353;-58
2022/10/06 14:30:56;;;;;;;;;;;16.30;93.90;;;;;;5106158;27;37084;-60
2022/10/06 14:33:23;;;;;;;;;;;16.30;93.30;;;;;;5107662;27;37445;-60
2022/10/06 14:35:50;;;;;;;;;;;16.20;93.30;;;;;;5108242;27;37320;-60
2022/10/06 14:38:17;;;;;;;;;;;16.20;92.90;;;;;;5107480;27;37851;-58
2022/10/06 14:40:44;;;;;;;;;;;16.20;93.10;;;;;;5106776;27;36065;-58
2022/10/06 14:43:12;;;;;;;;;;;16.20;92.70;;;;;;5106925;27;39774;-58